Time;durP1;ratioP1;P1;durP2;ratioP2;P2;SDS_P1;SDS_P2;PMS_P1;PMS_P2;Temp;Humidity;BMP_temperature;BMP_pressure;BME280_temperature;BME280_humidity;BME280_pressure;Samples;Min_cycle;Max_cycle;Signal;HPM_P1;HPM_P2
2021/12/11 00:01:05;;;;;;;54.97;25.88;;;-1.20;99.90;;;;;;5056009;28;20045;-67
2021/12/11 00:03:39;;;;;;;53.63;25.23;;;-1.20;99.90;;;;;;5059186;28;20094;-67
2021/12/11 00:06:15;;;;;;;58.50;27.80;;;-1.20;99.90;;;;;;5053944;28;20037;-67
2021/12/11 00:08:44;;;;;;;65.68;28.60;;;-1.20;99.90;;;;;;5056727;28;20091;-68
2021/12/11 00:11:15;;;;;;;58.08;26.55;;;-1.20;99.90;;;;;;5062512;28;20068;-67
2021/12/11 00:13:43;;;;;;;66.00;29.33;;;-1.20;99.90;;;;;;5060570;28;20075;-67
2021/12/11 00:16:15;;;;;;;56.83;28.52;;;-1.20;99.90;;;;;;5056950;28;20332;-67
2021/12/11 00:18:41;;;;;;;55.80;27.40;;;-1.20;99.90;;;;;;5056269;28;20061;-66
2021/12/11 00:21:11;;;;;;;61.97;27.80;;;-1.20;99.90;;;;;;5055253;28;20473;-67
2021/12/11 00:23:41;;;;;;;64.45;29.83;;;-1.20;99.90;;;;;;5063297;28;20049;-66
2021/12/11 00:26:09;;;;;;;60.25;28.45;;;-1.20;99.90;;;;;;5057669;28;20049;-66
2021/12/11 00:28:50;;;;;;;63.95;28.83;;;-1.20;99.90;;;;;;5065209;28;20044;-67
2021/12/11 00:31:16;;;;;;;59.28;27.20;;;-1.20;99.90;;;;;;5059513;28;20043;-67
2021/12/11 00:33:43;;;;;;;56.40;27.58;;;-1.20;99.90;;;;;;5056479;28;20060;-67
2021/12/11 00:36:16;;;;;;;57.80;27.48;;;-1.20;99.90;;;;;;5044411;28;20044;-68
2021/12/11 00:38:43;;;;;;;57.60;29.40;;;-1.30;99.90;;;;;;5057554;28;20052;-67
2021/12/11 00:41:12;;;;;;;56.33;26.77;;;-1.30;99.90;;;;;;5059112;28;20048;-68
2021/12/11 00:43:40;;;;;;;60.17;27.98;;;-1.30;99.90;;;;;;5040070;28;20048;-67
2021/12/11 00:46:11;;;;;;;60.05;29.75;;;-1.30;99.90;;;;;;5052070;28;20466;-67
2021/12/11 00:48:38;;;;;;;63.97;28.77;;;-1.30;99.90;;;;;;5054984;28;20099;-67
2021/12/11 00:51:11;;;;;;;51.85;25.85;;;-1.30;99.90;;;;;;5059390;28;20467;-68
2021/12/11 00:53:51;;;;;;;56.45;27.08;;;-1.30;99.90;;;;;;5054687;28;20059;-65
2021/12/11 00:56:21;;;;;;;61.90;27.60;;;-1.30;99.90;;;;;;5053364;28;20155;-66
2021/12/11 00:58:50;;;;;;;56.03;26.17;;;-1.30;99.90;;;;;;5057656;28;20044;-67
2021/12/11 01:01:23;;;;;;;51.65;26.45;;;-1.30;99.90;;;;;;5057296;28;20156;-67
2021/12/11 01:04:06;;;;;;;55.65;26.05;;;-1.40;99.90;;;;;;5057028;28;20075;-67
2021/12/11 01:06:40;;;;;;;53.05;25.73;;;-1.40;99.90;;;;;;5064257;28;20048;-66
2021/12/11 01:09:12;;;;;;;58.35;26.17;;;-1.40;99.90;;;;;;5060706;28;20047;-67
2021/12/11 01:12:15;;;;;;;56.85;26.55;;;-1.40;99.90;;;;;;5059838;28;20045;-67
2021/12/11 01:14:53;;;;;;;70.35;28.90;;;-1.40;99.90;;;;;;5057907;28;20233;-67
2021/12/11 01:17:25;;;;;;;59.47;27.08;;;-1.40;99.90;;;;;;5065901;28;20111;-66
2021/12/11 01:19:55;;;;;;;54.97;25.67;;;-1.40;99.90;;;;;;5062567;28;20040;-67
2021/12/11 01:22:35;;;;;;;59.53;24.80;;;-1.40;99.90;;;;;;5055017;28;20041;-67
2021/12/11 01:25:09;;;;;;;55.17;26.63;;;-1.40;99.90;;;;;;5064216;28;20051;-66
2021/12/11 01:27:37;;;;;;;66.60;26.83;;;-1.40;99.90;;;;;;5056757;28;20051;-69
2021/12/11 01:30:06;;;;;;;58.35;27.13;;;-1.40;99.90;;;;;;5061168;28;20487;-67
2021/12/11 01:32:34;;;;;;;65.78;27.15;;;-1.40;99.90;;;;;;5059346;28;20122;-66
2021/12/11 01:35:01;;;;;;;56.95;25.77;;;-1.40;99.90;;;;;;5058714;28;20120;-66
2021/12/11 01:37:28;;;;;;;66.35;28.25;;;-1.40;99.90;;;;;;5065165;28;20409;-66
2021/12/11 01:39:54;;;;;;;65.68;26.00;;;-1.40;99.90;;;;;;5056002;28;20099;-66
2021/12/11 01:42:27;;;;;;;62.70;27.70;;;-1.40;99.90;;;;;;5066853;28;20072;-66
2021/12/11 01:44:55;;;;;;;53.70;25.55;;;-1.40;99.90;;;;;;5068623;28;20119;-68
2021/12/11 01:47:28;;;;;;;56.08;23.95;;;-1.40;99.90;;;;;;5062704;28;20040;-68
2021/12/11 01:50:14;;;;;;;61.70;25.80;;;-1.40;99.90;;;;;;5057219;28;20037;-66
2021/12/11 01:52:47;;;;;;;61.17;27.80;;;-1.40;99.90;;;;;;5058758;28;20052;-65
2021/12/11 01:55:35;;;;;;;77.20;29.65;;;-1.40;99.90;;;;;;5059780;28;20049;-67
2021/12/11 01:58:03;;;;;;;57.80;26.60;;;-1.30;99.90;;;;;;5057712;28;20033;-67
2021/12/11 02:00:38;;;;;;;67.97;28.43;;;-1.30;99.90;;;;;;5064453;28;20052;-66
2021/12/11 02:03:09;;;;;;;63.97;27.65;;;-1.30;99.90;;;;;;5063287;28;20315;-66
2021/12/11 02:05:38;;;;;;;62.50;28.20;;;-1.20;99.90;;;;;;5067278;28;20403;-66
2021/12/11 02:08:08;;;;;;;66.00;29.00;;;-1.10;99.90;;;;;;5060720;28;20140;-67
2021/12/11 02:10:45;;;;;;;65.05;27.58;;;-1.10;99.90;;;;;;5068011;28;20032;-66
2021/12/11 02:13:19;;;;;;;64.82;28.52;;;-1.10;99.90;;;;;;5056336;28;20094;-66
2021/12/11 02:15:50;;;;;;;68.13;28.50;;;-1.10;99.90;;;;;;5058973;28;20041;-67
2021/12/11 02:18:34;;;;;;;64.85;28.02;;;-1.10;99.90;;;;;;5059224;28;20406;-67
2021/12/11 02:21:11;;;;;;;61.13;25.40;;;-1.20;99.90;;;;;;5061644;28;20123;-68
2021/12/11 02:23:38;;;;;;;67.00;27.77;;;-1.10;99.90;;;;;;5063099;28;20049;-67
2021/12/11 02:26:12;;;;;;;60.25;27.40;;;-1.10;99.90;;;;;;5055879;28;20197;-67
2021/12/11 02:28:45;;;;;;;61.22;27.85;;;-1.10;99.90;;;;;;5057172;28;20049;-67
2021/12/11 02:31:17;;;;;;;67.53;29.38;;;-1.10;99.90;;;;;;5065468;28;20045;-67
2021/12/11 02:33:45;;;;;;;69.10;28.98;;;-1.10;99.90;;;;;;5063371;28;20053;-67
2021/12/11 02:36:13;;;;;;;;;;;-1.10;99.90;;;;;;5056072;28;20049;-67
2021/12/11 02:38:54;;;;;;;55.72;25.92;;;-1.10;99.90;;;;;;5059298;28;19920;-67
2021/12/11 02:41:29;;;;;;;63.40;27.42;;;-1.10;99.90;;;;;;5054692;28;20511;-67
2021/12/11 02:44:01;;;;;;;60.72;26.63;;;-1.00;99.90;;;;;;5054516;28;20047;-67
2021/12/11 02:46:37;;;;;;;62.28;28.30;;;-0.90;99.90;;;;;;5059767;28;20047;-67
2021/12/11 02:49:14;;;;;;;59.70;28.10;;;-0.90;99.90;;;;;;5061423;28;20151;-68
2021/12/11 02:51:45;;;;;;;58.80;27.15;;;-0.80;99.90;;;;;;5060103;28;20068;-67
2021/12/11 02:54:19;;;;;;;70.15;29.58;;;-0.80;99.90;;;;;;5060517;28;20079;-67
2021/12/11 02:56:52;;;;;;;63.67;27.50;;;-0.90;99.90;;;;;;5048910;28;20060;-67
2021/12/11 02:59:23;;;;;;;62.00;27.02;;;-0.90;99.90;;;;;;5052786;28;20041;-67
2021/12/11 03:01:58;;;;;;;68.70;29.00;;;-0.90;99.90;;;;;;5054976;28;20052;-67
2021/12/11 03:04:35;;;;;;;66.85;28.88;;;-0.90;99.90;;;;;;5059154;28;20049;-67
2021/12/11 03:07:06;;;;;;;68.70;30.45;;;-0.90;99.90;;;;;;5063472;28;20048;-67
2021/12/11 03:09:34;;;;;;;71.05;29.65;;;-0.90;99.90;;;;;;5061362;28;20047;-67
2021/12/11 03:12:04;;;;;;;77.63;30.25;;;-0.90;99.90;;;;;;5070073;28;20387;-67
2021/12/11 03:14:30;;;;;;;68.07;30.30;;;-0.90;99.90;;;;;;5060350;28;20485;-67
2021/12/11 03:16:56;;;;;;;66.07;29.58;;;-0.90;99.90;;;;;;5059285;28;20487;-67
2021/12/11 03:19:25;;;;;;;74.22;31.33;;;-0.90;99.90;;;;;;5059775;28;20155;-67
2021/12/11 03:21:53;;;;;;;73.78;30.63;;;-0.80;99.90;;;;;;5056404;28;20055;-67
2021/12/11 03:24:19;;;;;;;74.60;33.40;;;-0.80;99.90;;;;;;5058169;28;20068;-66
2021/12/11 03:26:49;;;;;;;85.85;33.67;;;-0.80;99.90;;;;;;5055201;28;20394;-67
2021/12/11 03:29:15;;;;;;;76.22;31.25;;;-0.80;99.90;;;;;;5067919;28;20037;-67
2021/12/11 03:31:42;;;;;;;80.40;32.78;;;-0.80;99.90;;;;;;5062274;28;20047;-67
2021/12/11 03:34:12;;;;;;;73.22;30.98;;;-0.80;99.90;;;;;;5063907;28;20056;-68
2021/12/11 03:36:38;;;;;;;80.50;33.15;;;-0.80;99.90;;;;;;5062895;28;20048;-67
2021/12/11 03:39:12;;;;;;;82.43;31.83;;;-0.80;99.90;;;;;;5055086;28;20466;-67
2021/12/11 03:41:39;;;;;;;78.13;32.53;;;-0.80;99.90;;;;;;5055475;28;20152;-68
2021/12/11 03:44:07;;;;;;;78.32;31.13;;;-0.80;99.90;;;;;;5062372;28;20101;-67
2021/12/11 03:46:32;;;;;;;80.95;34.08;;;-0.80;99.90;;;;;;5060675;28;20127;-67
2021/12/11 03:49:02;;;;;;;83.25;34.03;;;-0.80;99.90;;;;;;5064829;28;20132;-67
2021/12/11 03:51:31;;;;;;;76.53;32.80;;;-0.80;99.90;;;;;;5059839;28;20075;-67
2021/12/11 03:54:00;;;;;;;81.50;32.63;;;-0.80;99.90;;;;;;5060654;28;20059;-68
2021/12/11 03:56:26;;;;;;;77.22;32.22;;;-0.80;99.90;;;;;;5058968;28;20037;-67
2021/12/11 03:58:52;;;;;;;79.25;33.70;;;-0.70;99.90;;;;;;5057688;28;20049;-67
2021/12/11 04:01:19;;;;;;;86.15;34.05;;;-0.70;99.90;;;;;;5056200;28;20052;-68
2021/12/11 04:03:47;;;;;;;83.35;34.03;;;-0.60;99.90;;;;;;5058056;28;20049;-67
2021/12/11 04:06:13;;;;;;;85.53;33.75;;;-0.60;99.90;;;;;;5065361;28;20462;-66
2021/12/11 04:08:40;;;;;;;77.05;33.40;;;-0.60;99.90;;;;;;5064873;28;20090;-68
2021/12/11 04:11:09;;;;;;;81.90;34.63;;;-0.50;99.90;;;;;;5055308;28;20040;-67
2021/12/11 04:13:35;;;;;;;77.47;33.88;;;-0.50;99.90;;;;;;5064118;28;20470;-67
2021/12/11 04:16:01;;;;;;;80.32;34.05;;;-0.40;99.90;;;;;;5059849;28;20045;-67
2021/12/11 04:18:27;;;;;;;72.32;31.23;;;-0.40;99.90;;;;;;5055481;28;20072;-67
2021/12/11 04:20:53;;;;;;;64.65;28.70;;;-0.30;99.90;;;;;;5060455;28;20076;-68
2021/12/11 04:23:20;;;;;;;64.40;29.98;;;-0.40;99.90;;;;;;5054433;28;20415;-68
2021/12/11 04:25:49;;;;;;;65.68;28.73;;;-0.40;99.90;;;;;;5061565;28;20593;-67
2021/12/11 04:28:17;;;;;;;;;;;-0.40;99.90;;;;;;5061109;28;20083;-67
2021/12/11 04:30:45;;;;;;;66.85;28.20;;;-0.40;99.90;;;;;;5061212;28;19920;-67
2021/12/11 04:33:11;;;;;;;64.70;28.92;;;-0.50;99.90;;;;;;5064232;28;20995;-67
2021/12/11 04:35:38;;;;;;;62.13;28.38;;;-0.50;99.90;;;;;;5046916;28;20053;-66
2021/12/11 04:38:07;;;;;;;62.88;27.70;;;-0.50;99.90;;;;;;5055406;28;20119;-67
2021/12/11 04:40:37;;;;;;;63.60;28.55;;;-0.60;99.90;;;;;;5060147;28;20041;-67
2021/12/11 04:43:11;;;;;;;70.97;29.13;;;-0.60;99.90;;;;;;5054118;28;20037;-67
2021/12/11 04:45:42;;;;;;;62.25;28.50;;;-0.70;99.90;;;;;;5060713;28;20091;-67
2021/12/11 04:49:22;;;;;;;69.22;29.05;;;-0.80;99.90;;;;;;5056072;28;20722;-67
2021/12/11 04:51:22;;;;;;;63.17;26.85;;;-0.80;99.90;;;;;;5063815;28;20067;-66
2021/12/11 05:10:18;;;;;;;61.80;27.33;;;-1.10;99.90;;;;;;5062529;28;20049;-67
2021/12/11 05:12:47;;;;;;;62.70;27.00;;;-1.10;99.90;;;;;;5052419;28;20052;-67
2021/12/11 05:15:22;;;;;;;64.97;28.80;;;-1.10;99.90;;;;;;5056989;28;20465;-67
2021/12/11 05:17:48;;;;;;;65.57;28.33;;;-1.10;99.90;;;;;;5052781;28;20060;-67
2021/12/11 05:20:18;;;;;;;71.40;30.20;;;-1.10;99.90;;;;;;5064431;28;20124;-68
2021/12/11 05:22:44;;;;;;;81.22;32.50;;;-1.10;99.90;;;;;;5052424;28;20049;-68
2021/12/11 05:25:11;;;;;;;76.78;31.52;;;-1.10;99.90;;;;;;5051350;28;20543;-67
2021/12/11 05:27:39;;;;;;;73.90;30.98;;;-1.10;99.90;;;;;;5056871;28;20048;-67
2021/12/11 05:30:08;;;;;;;79.20;33.65;;;-1.10;99.90;;;;;;5045219;28;20044;-67
2021/12/11 05:32:34;;;;;;;74.15;31.63;;;-1.00;99.90;;;;;;5059847;28;20109;-66
2021/12/11 05:35:00;;;;;;;82.10;34.05;;;-1.10;99.90;;;;;;5060413;28;20470;-68
2021/12/11 05:37:26;;;;;;;77.00;31.83;;;-1.00;99.90;;;;;;5062638;28;20409;-67
2021/12/11 05:39:52;;;;;;;93.78;35.38;;;-1.00;99.90;;;;;;5063316;28;20082;-66
2021/12/11 05:42:18;;;;;;;88.82;34.65;;;-1.00;99.90;;;;;;5052466;28;20036;-66
2021/12/11 05:44:43;;;;;;;83.47;34.10;;;-1.00;99.90;;;;;;5051819;28;20445;-67
2021/12/11 05:47:10;;;;;;;77.95;32.78;;;-1.00;99.90;;;;;;5054737;28;20410;-66
2021/12/11 05:49:37;;;;;;;86.20;32.83;;;-1.00;99.90;;;;;;5065306;28;20044;-67
2021/12/11 05:52:07;;;;;;;74.38;32.03;;;-1.00;99.90;;;;;;5056340;28;20040;-66
2021/12/11 05:54:34;;;;;;;91.93;33.78;;;-1.00;99.90;;;;;;5068870;28;20041;-66
2021/12/11 05:57:04;;;;;;;88.68;35.35;;;-1.00;99.90;;;;;;5058530;28;20071;-67
2021/12/11 05:59:30;;;;;;;91.47;35.58;;;-1.00;99.90;;;;;;5060560;28;20080;-67
2021/12/11 06:02:08;;;;;;;90.10;36.75;;;-0.90;99.90;;;;;;5065817;28;20241;-67
2021/12/11 06:04:36;;;;;;;86.13;34.22;;;-0.90;99.90;;;;;;5064908;28;20044;-67
2021/12/11 06:07:06;;;;;;;79.15;33.10;;;-0.90;99.90;;;;;;5061032;28;20417;-66
2021/12/11 06:09:32;;;;;;;91.55;35.80;;;-0.90;99.90;;;;;;5061077;28;20067;-67
2021/12/11 06:12:04;;;;;;;88.38;34.47;;;-0.70;99.90;;;;;;5057003;28;20072;-66
2021/12/11 06:14:29;;;;;;;84.35;35.05;;;-0.90;99.90;;;;;;5047769;28;20128;-66
2021/12/11 06:16:58;;;;;;;98.25;36.00;;;-0.90;99.90;;;;;;5058913;28;20139;-67
2021/12/11 06:19:25;;;;;;;89.35;35.55;;;-0.90;99.90;;;;;;5055953;28;20049;-67
2021/12/11 06:21:53;;;;;;;82.47;34.28;;;-0.90;99.90;;;;;;5056878;28;20125;-66
2021/12/11 06:24:19;;;;;;;91.50;35.05;;;-0.80;99.90;;;;;;5063320;28;20122;-65
2021/12/11 06:26:45;;;;;;;86.78;35.67;;;-0.80;99.90;;;;;;5065007;28;20048;-66
2021/12/11 06:29:12;;;;;;;72.75;31.50;;;-0.80;99.90;;;;;;5060870;28;20413;-66
2021/12/11 06:31:38;;;;;;;83.07;33.20;;;-0.80;99.90;;;;;;5058733;28;20368;-67
2021/12/11 06:34:04;;;;;;;78.65;32.15;;;-0.80;99.90;;;;;;5061438;28;20103;-66
2021/12/11 06:36:30;;;;;;;91.75;34.03;;;-0.80;99.90;;;;;;5057998;28;20060;-66
2021/12/11 06:39:00;;;;;;;81.93;33.20;;;-0.80;99.90;;;;;;5058485;28;20122;-66
2021/12/11 06:41:31;;;;;;;73.35;32.85;;;-0.80;99.90;;;;;;5058233;28;20186;-66
2021/12/11 06:43:57;;;;;;;71.40;30.77;;;-0.80;99.90;;;;;;5039286;28;20044;-66
2021/12/11 06:46:23;;;;;;;59.47;28.58;;;-0.90;99.90;;;;;;5057393;28;20041;-68
2021/12/11 06:48:51;;;;;;;74.88;30.77;;;-0.90;99.90;;;;;;5056665;28;20518;-67
2021/12/11 06:51:17;;;;;;;71.43;30.80;;;-0.90;99.90;;;;;;5056834;28;20040;-67
2021/12/11 06:53:54;;;;;;;75.00;32.60;;;-0.90;99.90;;;;;;5058956;28;20048;-67
2021/12/11 06:56:22;;;;;;;78.25;31.20;;;-0.90;99.90;;;;;;5064784;28;20393;-67
2021/12/11 06:58:51;;;;;;;72.55;30.55;;;-0.90;99.90;;;;;;5063632;28;20044;-67
2021/12/11 07:01:19;;;;;;;69.60;31.42;;;-0.90;99.90;;;;;;5055568;28;20041;-66
2021/12/11 07:03:44;;;;;;;70.90;30.85;;;-1.00;99.90;;;;;;5057790;28;20044;-68
2021/12/11 07:06:11;;;;;;;80.55;33.10;;;-1.00;99.90;;;;;;5055606;28;20126;-66
2021/12/11 07:08:38;;;;;;;75.88;32.13;;;-1.00;99.90;;;;;;5054435;28;20045;-66
2021/12/11 07:11:09;;;;;;;71.03;30.52;;;-1.00;99.90;;;;;;5057264;28;20533;-66
2021/12/11 07:13:34;;;;;;;73.07;31.08;;;-1.00;99.90;;;;;;5061030;28;20047;-66
2021/12/11 07:16:01;;;;;;;79.05;31.10;;;-1.00;99.90;;;;;;5059498;28;20040;-66
2021/12/11 07:18:31;;;;;;;70.03;29.30;;;-1.10;99.90;;;;;;5067311;28;20052;-66
2021/12/11 07:20:57;;;;;;;72.50;32.47;;;-1.00;99.90;;;;;;5053737;28;20033;-65
2021/12/11 07:23:23;;;;;;;68.55;31.02;;;-1.00;99.90;;;;;;5060374;28;20045;-66
2021/12/11 07:25:59;;;;;;;77.15;32.90;;;-1.10;99.90;;;;;;5070906;28;20048;-66
2021/12/11 07:28:26;;;;;;;81.13;33.45;;;-1.10;99.90;;;;;;5072223;28;20216;-66
2021/12/11 07:30:55;;;;;;;83.50;34.03;;;-1.10;99.90;;;;;;5058476;28;20051;-65
2021/12/11 07:33:21;;;;;;;77.55;32.08;;;-1.10;99.90;;;;;;5073460;28;20048;-66
2021/12/11 07:35:47;;;;;;;84.03;32.60;;;-0.20;99.90;;;;;;5070408;28;20056;-66
2021/12/11 07:38:14;;;;;;;83.53;34.30;;;-1.00;99.90;;;;;;5061973;28;20072;-66
2021/12/11 07:40:49;;;;;;;80.15;33.17;;;-1.10;99.90;;;;;;5036628;28;20135;-65
2021/12/11 07:43:17;;;;;;;76.00;32.97;;;-1.10;99.90;;;;;;5064163;28;20133;-67
2021/12/11 07:45:43;;;;;;;83.35;34.72;;;-1.00;99.90;;;;;;5058532;28;20041;-65
2021/12/11 07:48:10;;;;;;;83.05;34.97;;;-1.00;99.90;;;;;;5060783;28;20059;-67
2021/12/11 07:50:37;;;;;;;84.97;34.28;;;-1.00;99.90;;;;;;5057810;28;20119;-67
2021/12/11 07:53:04;;;;;;;79.03;33.53;;;-1.00;99.90;;;;;;5053871;28;20041;-67
2021/12/11 07:55:30;;;;;;;83.43;35.40;;;-1.00;99.90;;;;;;5053013;28;20045;-67
2021/12/11 07:57:56;;;;;;;79.28;36.10;;;-0.90;99.90;;;;;;5043951;28;20138;-68
2021/12/11 08:00:25;;;;;;;77.55;34.38;;;-0.90;99.90;;;;;;5052770;28;20041;-66
2021/12/11 08:02:51;;;;;;;78.07;34.97;;;-0.90;99.90;;;;;;5065298;28;20087;-67
2021/12/11 08:05:18;;;;;;;82.70;36.05;;;-0.90;99.90;;;;;;5052668;28;20098;-67
2021/12/11 08:07:43;;;;;;;85.90;34.25;;;-0.90;99.90;;;;;;5061779;28;20569;-66
2021/12/11 08:10:14;;;;;;;83.35;34.65;;;-0.90;99.90;;;;;;5068375;28;20110;-65
2021/12/11 08:12:41;;;;;;;81.88;34.00;;;-0.90;99.90;;;;;;5057923;28;20059;-66
2021/12/11 08:15:08;;;;;;;78.60;33.30;;;-0.80;99.90;;;;;;5060805;28;20115;-65
2021/12/11 08:17:34;;;;;;;74.20;32.10;;;-0.80;99.90;;;;;;5068553;28;20061;-66
2021/12/11 08:20:00;;;;;;;86.47;37.63;;;-0.80;99.90;;;;;;5052873;28;20064;-66
2021/12/11 08:22:25;;;;;;;79.97;35.65;;;-0.80;99.90;;;;;;5034041;28;20379;-67
2021/12/11 08:24:51;;;;;;;83.55;36.60;;;-0.70;99.90;;;;;;5050463;28;20093;-68
2021/12/11 08:27:20;;;;;;;87.00;35.92;;;-0.70;99.90;;;;;;5053022;28;20052;-67
2021/12/11 08:29:49;;;;;;;81.65;34.50;;;-0.60;99.90;;;;;;5063697;28;20568;-67
2021/12/11 08:32:16;;;;;;;84.45;34.80;;;-0.60;99.90;;;;;;5054543;28;20494;-67
2021/12/11 08:34:43;;;;;;;79.88;33.95;;;-0.50;99.90;;;;;;5065252;28;20048;-67
2021/12/11 08:37:12;;;;;;;73.85;33.80;;;-0.40;99.90;;;;;;5058374;28;20474;-67
2021/12/11 08:39:40;;;;;;;75.32;32.88;;;-0.30;99.90;;;;;;5069728;28;20072;-67
2021/12/11 08:42:08;;;;;;;81.68;34.58;;;-0.30;99.90;;;;;;5053835;28;20454;-68
2021/12/11 08:44:37;;;;;;;;;;;-0.20;99.90;;;;;;5058670;28;20036;-66
2021/12/11 08:47:11;;;;;;;83.82;34.28;;;-0.20;99.90;;;;;;5056360;28;19929;-66
2021/12/11 08:49:39;;;;;;;72.35;33.70;;;-0.10;99.90;;;;;;5061799;28;20040;-66
2021/12/11 08:52:27;;;;;;;82.55;31.90;;;-0.10;99.90;;;;;;5041537;28;20124;-66
2021/12/11 08:54:55;;;;;;;65.25;30.92;;;0.00;99.90;;;;;;5054565;28;20044;-66
2021/12/11 08:57:24;;;;;;;69.95;33.50;;;0.10;99.90;;;;;;5064520;28;20049;-66
2021/12/11 08:59:56;;;;;;;75.32;33.25;;;0.10;99.90;;;;;;5060307;28;20646;-69
2021/12/11 09:02:33;;;;;;;76.60;33.50;;;0.20;99.90;;;;;;5054187;28;20126;-66
2021/12/11 09:05:27;;;;;;;69.38;29.48;;;0.30;99.90;;;;;;5054388;28;20052;-67
2021/12/11 09:08:32;;;;;;;62.33;29.60;;;0.40;99.90;;;;;;5061252;28;20122;-65
2021/12/11 09:11:16;;;;;;;59.10;28.02;;;0.50;99.90;;;;;;5054152;28;20048;-65
2021/12/11 09:13:47;;;;;;;52.92;28.08;;;0.60;99.90;;;;;;5049754;28;20070;-66
2021/12/11 09:16:22;;;;;;;51.00;26.70;;;0.70;99.90;;;;;;5052142;28;20159;-67
2021/12/11 09:18:59;;;;;;;51.42;26.98;;;0.90;99.90;;;;;;5033588;28;20392;-67
2021/12/11 09:21:30;;;;;;;50.20;25.95;;;1.10;99.90;;;;;;5051459;28;20041;-67
2021/12/11 09:24:04;;;;;;;42.42;24.00;;;1.30;99.90;;;;;;5052559;28;20130;-67
2021/12/11 09:26:49;;;;;;;47.00;25.85;;;1.40;99.90;;;;;;5055512;28;20589;-66
2021/12/11 09:29:32;;;;;;;44.63;23.67;;;1.50;99.90;;;;;;5061157;28;20044;-67
2021/12/11 09:32:35;;;;;;;42.45;22.60;;;1.80;99.90;;;;;;5055018;28;20053;-66
2021/12/11 09:35:12;;;;;;;36.22;19.90;;;2.10;99.90;;;;;;5052478;28;20064;-67
2021/12/11 09:37:39;;;;;;;37.05;19.63;;;2.50;99.90;;;;;;5068551;28;20036;-68
2021/12/11 09:40:37;;;;;;;35.63;19.60;;;2.80;99.90;;;;;;5058380;28;20114;-67
2021/12/11 09:43:03;;;;;;;33.70;19.88;;;3.10;99.90;;;;;;5062716;28;20100;-67
2021/12/11 09:45:37;;;;;;;34.08;17.88;;;3.40;99.90;;;;;;5057043;28;20143;-67
2021/12/11 09:48:07;;;;;;;29.65;18.05;;;3.40;99.90;;;;;;5055531;28;20080;-66
2021/12/11 09:50:46;;;;;;;34.58;19.08;;;3.20;99.90;;;;;;5053717;28;20053;-67
2021/12/11 09:53:16;;;;;;;35.88;19.90;;;2.90;99.90;;;;;;5059356;28;20041;-68
2021/12/11 09:55:42;;;;;;;36.28;19.02;;;2.70;99.90;;;;;;5063259;28;20036;-67
2021/12/11 09:58:12;;;;;;;37.38;19.60;;;2.60;99.90;;;;;;5059387;28;20078;-67
2021/12/11 10:00:47;;;;;;;36.92;19.10;;;2.40;99.90;;;;;;5061752;28;20049;-67
2021/12/11 10:03:16;;;;;;;32.90;18.98;;;2.30;99.90;;;;;;5059521;28;20514;-67
2021/12/11 10:05:49;;;;;;;37.88;20.17;;;2.20;99.90;;;;;;5064836;28;20087;-67
2021/12/11 10:10:55;;;;;;;37.08;21.05;;;2.10;99.90;;;;;;5061799;28;20056;-67
2021/12/11 10:13:21;;;;;;;40.55;21.42;;;2.10;99.90;;;;;;5064224;28;20041;-67
2021/12/11 10:15:47;;;;;;;42.33;21.70;;;2.00;99.90;;;;;;5056617;28;20055;-67
2021/12/11 10:18:19;;;;;;;44.67;22.40;;;2.00;99.90;;;;;;5056692;28;20048;-66
2021/12/11 10:20:48;;;;;;;41.53;22.63;;;1.90;99.90;;;;;;5055096;28;20049;-65
2021/12/11 10:23:17;;;;;;;38.83;22.63;;;1.90;99.90;;;;;;5066982;28;20056;-66
2021/12/11 10:25:45;;;;;;;41.13;21.60;;;1.90;99.90;;;;;;5051869;28;20538;-66
2021/12/11 10:28:12;;;;;;;43.22;23.02;;;1.90;99.90;;;;;;5057602;28;20045;-66
2021/12/11 10:30:45;;;;;;;50.60;24.40;;;1.90;99.90;;;;;;5071570;28;20086;-67
2021/12/11 10:33:12;;;;;;;42.00;23.50;;;2.00;99.90;;;;;;5048485;28;20468;-67
2021/12/11 10:35:42;;;;;;;45.30;24.20;;;2.00;99.90;;;;;;5059727;28;20037;-67
2021/12/11 10:38:09;;;;;;;45.75;23.20;;;2.00;99.90;;;;;;5066743;28;20144;-67
2021/12/11 10:40:39;;;;;;;42.00;23.13;;;2.00;99.90;;;;;;5063771;28;20067;-66
2021/12/11 10:43:11;;;;;;;44.40;25.15;;;2.10;99.90;;;;;;5055553;28;20163;-66
2021/12/11 10:45:37;;;;;;;40.97;21.83;;;2.10;99.90;;;;;;5059045;28;20044;-66
2021/12/11 10:48:07;;;;;;;47.30;23.17;;;2.10;99.90;;;;;;5066482;28;20383;-66
2021/12/11 10:50:38;;;;;;;42.83;22.08;;;2.30;99.90;;;;;;5054980;28;20047;-66
2021/12/11 10:53:06;;;;;;;44.40;21.83;;;2.20;99.90;;;;;;5068863;28;20048;-65
2021/12/11 10:55:33;;;;;;;43.92;22.48;;;2.30;99.90;;;;;;5053524;28;20510;-66
2021/12/11 10:58:02;;;;;;;44.60;23.40;;;2.30;99.90;;;;;;5054314;28;20505;-67
2021/12/11 11:00:33;;;;;;;48.63;23.38;;;2.40;99.90;;;;;;5052375;28;20434;-67
2021/12/11 11:03:00;;;;;;;40.33;22.05;;;3.40;99.90;;;;;;5063553;28;20135;-66
2021/12/11 11:05:29;;;;;;;44.13;22.00;;;2.60;99.90;;;;;;5064991;28;20479;-67
2021/12/11 11:07:55;;;;;;;;;;;2.60;99.90;;;;;;5056000;28;20053;-67
2021/12/11 11:10:26;;;;;;;43.13;22.02;;;2.70;99.90;;;;;;5054700;28;19928;-68
2021/12/11 11:12:53;;;;;;;44.45;23.13;;;2.80;99.90;;;;;;5065534;28;20041;-67
2021/12/11 11:15:21;;;;;;;43.35;22.42;;;3.00;99.90;;;;;;5058078;28;20044;-67
2021/12/11 11:17:46;;;;;;;;;;;3.10;99.90;;;;;;5027526;28;1060779;-68
2021/12/11 11:20:17;;;;;;;32.55;19.85;;;3.20;99.90;;;;;;5056431;28;20263;-68
2021/12/11 11:22:44;;;;;;;40.63;22.52;;;3.30;99.90;;;;;;5063815;28;21953;-67
2021/12/11 11:25:16;;;;;;;37.00;20.33;;;3.40;99.90;;;;;;5070165;28;20048;-68
2021/12/11 11:27:44;;;;;;;38.60;20.73;;;3.40;99.90;;;;;;5054829;28;20158;-66
2021/12/11 11:30:14;;;;;;;39.70;21.27;;;3.40;99.90;;;;;;5053037;28;20110;-68
2021/12/11 11:32:40;;;;;;;42.00;22.23;;;3.50;99.90;;;;;;5081779;28;20081;-67
2021/12/11 11:35:19;;;;;;;40.70;22.25;;;3.50;99.90;;;;;;5055728;28;20497;-67
2021/12/11 11:37:48;;;;;;;35.40;21.27;;;3.60;99.90;;;;;;5066268;28;20068;-65
2021/12/11 11:40:20;;;;;;;37.40;20.42;;;3.60;99.90;;;;;;5061634;28;20045;-67
2021/12/11 11:42:46;;;;;;;39.17;21.58;;;3.60;99.90;;;;;;5064083;28;20390;-66
2021/12/11 11:45:12;;;;;;;34.70;20.35;;;3.70;99.90;;;;;;5053154;28;20056;-66
2021/12/11 11:47:39;;;;;;;35.33;20.92;;;3.70;99.90;;;;;;5056950;28;20596;-67
2021/12/11 11:50:07;;;;;;;31.73;18.80;;;3.70;99.90;;;;;;5053880;28;20041;-67
2021/12/11 11:52:33;;;;;;;36.67;20.60;;;3.70;99.90;;;;;;5059611;28;20045;-67
2021/12/11 11:55:02;;;;;;;37.67;20.70;;;3.80;99.90;;;;;;5061889;28;20037;-67
2021/12/11 11:57:39;;;;;;;43.15;21.15;;;3.80;99.90;;;;;;5061046;28;20041;-67
2021/12/11 12:00:14;;;;;;;36.92;19.20;;;3.80;99.90;;;;;;5054196;28;20478;-67
2021/12/11 12:02:40;;;;;;;42.60;19.52;;;3.80;99.90;;;;;;5056243;28;20053;-67
2021/12/11 12:05:07;;;;;;;37.13;19.33;;;3.80;99.90;;;;;;5061522;28;20459;-67
2021/12/11 12:07:33;;;;;;;36.03;20.55;;;3.90;99.90;;;;;;5064810;28;20044;-67
2021/12/11 12:10:06;;;;;;;35.20;19.10;;;4.00;99.90;;;;;;5058211;28;20048;-66
2021/12/11 12:12:32;;;;;;;34.58;19.10;;;4.00;99.90;;;;;;5057931;28;20071;-65
2021/12/11 12:14:59;;;;;;;38.47;19.98;;;4.00;99.90;;;;;;5057977;28;20379;-67
2021/12/11 12:17:27;;;;;;;32.30;18.20;;;3.90;99.90;;;;;;5057389;28;20048;-67
2021/12/11 12:19:55;;;;;;;32.80;19.02;;;3.90;99.90;;;;;;5059272;28;20051;-68
2021/12/11 12:22:22;;;;;;;29.05;17.98;;;3.90;99.90;;;;;;5062591;28;20041;-67
2021/12/11 12:24:51;;;;;;;32.40;17.92;;;4.00;99.90;;;;;;5055034;28;20408;-67
2021/12/11 12:27:20;;;;;;;34.47;17.67;;;4.00;99.90;;;;;;5056769;28;20041;-67
2021/12/11 12:29:51;;;;;;;27.27;16.45;;;4.00;99.90;;;;;;5064507;28;20389;-67
2021/12/11 12:32:27;;;;;;;41.20;19.55;;;4.00;99.90;;;;;;5069502;28;20418;-66
2021/12/11 12:34:55;;;;;;;34.85;17.48;;;3.90;99.90;;;;;;5058401;28;20032;-68
2021/12/11 12:37:21;;;;;;;28.63;16.20;;;3.90;99.90;;;;;;5059050;28;20144;-64
2021/12/11 12:39:50;;;;;;;34.20;18.48;;;3.90;99.90;;;;;;5052799;28;20051;-64
2021/12/11 12:42:39;;;;;;;30.23;18.30;;;3.90;99.90;;;;;;5060579;28;20037;-66
2021/12/11 12:45:19;;;;;;;32.03;18.95;;;3.80;99.90;;;;;;5066827;28;20049;-65
2021/12/11 12:47:52;;;;;;;38.15;19.52;;;3.90;99.90;;;;;;5063980;28;20045;-64
2021/12/11 12:50:28;;;;;;;39.33;19.13;;;3.90;99.90;;;;;;5066725;28;20052;-67
2021/12/11 12:52:54;;;;;;;35.40;20.20;;;3.90;99.90;;;;;;5057676;28;20447;-66
2021/12/11 12:55:25;;;;;;;30.27;15.95;;;3.90;99.90;;;;;;5049409;28;20036;-65
2021/12/11 12:57:54;;;;;;;32.50;18.73;;;3.90;99.90;;;;;;5063547;28;20471;-66
2021/12/11 13:00:28;;;;;;;31.45;18.23;;;3.90;99.90;;;;;;5057662;28;20170;-65
2021/12/11 13:03:01;;;;;;;33.28;18.98;;;3.90;99.90;;;;;;5062225;28;20052;-66
2021/12/11 13:05:43;;;;;;;34.38;17.38;;;3.90;99.90;;;;;;5064356;28;20528;-67